Welcome to Northern Hawkes Bay. New Zealand.
PWS Header
      nz Flag



Hit Counter


W3C Valid W3C Valid logo


    Wairoa

Select any of the Stations below to visit their websites.










Historic Data from Weather Underground
Select the location of interest below. Wairoa is the default. Please have patience, this Data is slow to load in.
Northern Hawkes Bay Historical Data
Daily Summary for April 14, 2017 Units:  English    Metric   Both
« Previous Day
Next Day »
Daily Weekly Monthly Yearly Custom
  High: Low: Average:
Temperature: 78.1 °F 56.3 °F 67.6 °F
Dew Point: 61.2 °F 53.2 °F 55.8 °F
Humidity: 93% 45% 67%
Wind Speed: 14.5mph 0mph 3.9mph
Wind Gust: 26.6mph - -
Wind- - SSE
Pressure: 29.7 in 29.5 in -
Precipitation: 0 in    
Historical Graphs
 
 
Tabular Data for April 14, 2017
Time Temperature Dew Point Pressure Wind Wind Speed Wind Gust Humidity Rainfall Rate (Hourly) solar
00:02 68 °F 56.1 °F 29.5 in North 6 mph 23.5 mph 66% 0 in 0 W/m2
00:07 68 °F 56.1 °F 29.5 in North 8.3 mph 26.6 mph 66% 0 in 0 W/m2
00:12 67.8 °F 56.5 °F 29.5 in North 14.5 mph 26.6 mph 67% 0 in 0 W/m2
00:17 68 °F 55.8 °F 29.5 in North 12.1 mph 22.1 mph 65% 0 in 0 W/m2
00:22 68 °F 55.8 °F 29.5 in North 11.4 mph 22.8 mph 65% 0 in 0 W/m2
00:27 67.8 °F 56.5 °F 29.5 in North 12.1 mph 22.8 mph 67% 0 in 0 W/m2
00:32 67.6 °F 56.3 °F 29.5 in North 13.6 mph 22.1 mph 67% 0 in 0 W/m2
00:37 67.6 °F 56.3 °F 29.5 in North 10.7 mph 22.1 mph 67% 0 in 0 W/m2
00:42 67.8 °F 56.5 °F 29.5 in NNW 11.4 mph 19.7 mph 67% 0 in 0 W/m2
00:47 67.8 °F 56.5 °F 29.5 in NNW 7.6 mph 19 mph 67% 0 in 0 W/m2
00:52 67.6 °F 56.3 °F 29.5 in North 3.8 mph 16.8 mph 67% 0 in 0 W/m2
00:57 67.5 °F 56.1 °F 29.5 in NNE 7.6 mph 16.8 mph 67% 0 in 0 W/m2
01:02 67.5 °F 56.7 °F 29.5 in North 7.6 mph 16.8 mph 68% 0 in 0 W/m2
01:07 67.6 °F 56.3 °F 29.5 in North 3.8 mph 13.6 mph 67% 0 in 0 W/m2
01:12 67.5 °F 56.1 °F 29.5 in North 3.8 mph 13.6 mph 67% 0 in 0 W/m2
01:17 67.8 °F 56.5 °F 29.5 in North 7.6 mph 18.3 mph 67% 0 in 0 W/m2
01:22 68 °F 56.1 °F 29.5 in North 10.7 mph 18.3 mph 66% 0 in 0 W/m2
01:27 68 °F 56.1 °F 29.5 in NNW 5.4 mph 18.3 mph 66% 0 in 0 W/m2
01:32 67.6 °F 56.3 °F 29.5 in NNW 9.2 mph 13.6 mph 67% 0 in 0 W/m2
01:37 67.5 °F 56.7 °F 29.5 in NNE 6 mph 17.4 mph 68% 0 in 0 W/m2
01:42 67.5 °F 56.7 °F 29.5 in NE 2.2 mph 17.4 mph 68% 0 in 0 W/m2
01:47 67.3 °F 56.5 °F 29.5 in NNE 5.4 mph 17.4 mph 68% 0 in 0 W/m2
01:52 67.1 °F 56.1 °F 29.5 in NE 9.2 mph 14.5 mph 68% 0 in 0 W/m2
02:12 66.9 °F 56.8 °F 29.5 in NNE 4.5 mph 9.8 mph 70% 0 in 0 W/m2
02:17 66.6 °F 56.5 °F 29.5 in NNE 3.8 mph 9.8 mph 70% 0 in 0 W/m2
02:22 66.2 °F 56.5 °F 29.5 in NNE 3.8 mph 7.6 mph 71% 0 in 0 W/m2
02:27 65.8 °F 57.4 °F 29.6 in NNE 6 mph 9.8 mph 74% 0 in 0 W/m2
02:32 65.8 °F 57.4 °F 29.6 in NNE 3.8 mph 9.8 mph 74% 0 in 0 W/m2
02:37 65.7 °F 57.6 °F 29.6 in NNE 3.8 mph 9.8 mph 75% 0 in 0 W/m2
02:42 65.5 °F 57.4 °F 29.6 in NE 3.8 mph 8.3 mph 75% 0 in 0 W/m2
02:47 65.3 °F 57.2 °F 29.6 in NE 3.8 mph 6.9 mph 75% 0 in 0 W/m2
02:52 65.3 °F 57.6 °F 29.6 in NNE 4.5 mph 6.9 mph 76% 0 in 0 W/m2
02:57 65.3 °F 57.6 °F 29.6 in NE 2.2 mph 6.9 mph 76% 0 in 0 W/m2
03:02 65.3 °F 57.6 °F 29.6 in NE 3.1 mph 15.2 mph 76% 0 in 0 W/m2
03:07 65.5 °F 57.7 °F 29.6 in NNE 3.8 mph 15.2 mph 76% 0 in 0 W/m2
03:12 65.5 °F 57.7 °F 29.6 in North 4.5 mph 9.2 mph 76% 0 in 0 W/m2
03:17 65.7 °F 57.9 °F 29.6 in NNE 2.2 mph 9.2 mph 76% 0 in 0 W/m2
03:22 65.7 °F 57.9 °F 29.6 in NNE 1.6 mph 9.2 mph 76% 0 in 0 W/m2
03:27 65.7 °F 57.9 °F 29.6 in NNE 2.2 mph 7.6 mph 76% 0 in 0 W/m2
03:32 65.5 °F 58.1 °F 29.6 in NNE 3.8 mph 9.2 mph 77% 0 in 0 W/m2
03:37 65.5 °F 58.1 °F 29.6 in NNE 3.1 mph 9.2 mph 77% 0 in 0 W/m2
03:42 65.7 °F 58.3 °F 29.6 in NNE 3.8 mph 6.9 mph 77% 0 in 0 W/m2
03:47 65.7 °F 57.9 °F 29.6 in North 5.4 mph 8.3 mph 76% 0 in 0 W/m2
03:52 65.8 °F 58.1 °F 29.6 in Calm   8.3 mph 76% 0 in 0 W/m2
03:57 65.7 °F 57.9 °F 29.6 in Calm   6.9 mph 76% 0 in 0 W/m2
04:02 65.1 °F 57.7 °F 29.6 in Calm   5.4 mph 77% 0 in 0 W/m2
04:07 64.8 °F 57.4 °F 29.6 in Calm   5.4 mph 77% 0 in 0 W/m2
04:08 64.8 °F 57.4 °F 29.6 in Calm   5.4 mph 77% 0 in 0 W/m2
04:14 64.6 °F 57.6 °F 29.6 in Calm   3.1 mph 78% 0 in 0 W/m2
04:19 64.2 °F 57.6 °F 29.6 in Calm   3.1 mph 79% 0 in 0 W/m2
04:24 64 °F 57.7 °F 29.6 in Calm   1.6 mph 80% 0 in 0 W/m2
04:29 63.9 °F 57.6 °F 29.6 in Calm   0.7 mph 80% 0 in 0 W/m2
04:34 63.5 °F 57.6 °F 29.6 in Calm     81% 0 in 0 W/m2
04:39 63.3 °F 57.4 °F 29.6 in Calm     81% 0 in 0 W/m2
04:44 62.8 °F 56.8 °F 29.6 in Calm     81% 0 in 0 W/m2
05:01 62.1 °F 57.6 °F 29.6 in Calm   3.1 mph 85% 0 in 0 W/m2
05:06 62.2 °F 57.7 °F 29.6 in Calm   1.6 mph 85% 0 in 0 W/m2
05:11 62.2 °F 57.7 °F 29.6 in Calm     85% 0 in 0 W/m2
05:16 62.2 °F 57.7 °F 29.6 in Calm     85% 0 in 0 W/m2
05:34 62.1 °F 58.3 °F 29.6 in Calm     87% 0 in 0 W/m2
05:39 62.1 °F 58.3 °F 29.6 in Calm     87% 0 in 0 W/m2
05:44 61.9 °F 57.9 °F 29.6 in Calm     87% 0 in 0 W/m2
05:49 61.9 °F 57.9 °F 29.6 in Calm     87% 0 in 0 W/m2
05:55 61.7 °F 57.7 °F 29.6 in Calm     87% 0 in 0 W/m2
06:00 61.3 °F 57.6 °F 29.6 in Calm     87% 0 in 0 W/m2
06:05 61.2 °F 57.6 °F 29.6 in Calm     88% 0 in 0 W/m2
06:10 61 °F 57.4 °F 29.6 in Calm     88% 0 in 0 W/m2
06:15 61 °F 57.4 °F 29.6 in Calm     88% 0 in 0 W/m2
06:20 60.8 °F 57.2 °F 29.6 in Calm     88% 0 in 0 W/m2
06:25 60.6 °F 57.7 °F 29.6 in Calm     90% 0 in 0 W/m2
06:30 60.6 °F 57.7 °F 29.6 in Calm     90% 0 in 0 W/m2
06:35 60.3 °F 57.4 °F 29.6 in Calm     90% 0 in 2 W/m2
06:40 59.9 °F 57.4 °F 29.6 in Calm     91% 0 in 6 W/m2
06:45 59.9 °F 57.4 °F 29.6 in Calm     91% 0 in 11 W/m2
06:51 59.9 °F 57.6 °F 29.6 in Calm     92% 0 in 23 W/m2
06:56 60.3 °F 58.3 °F 29.6 in Calm     93% 0 in 28 W/m2
07:01 60.4 °F 58.5 °F 29.6 in Calm     93% 0 in 31 W/m2
07:06 61.2 °F 59.2 °F 29.6 in Calm     93% 0 in 101 W/m2
07:11 62.4 °F 60.4 °F 29.6 in NW 1.6 mph 3.8 mph 93% 0 in 109 W/m2
07:16 63.1 °F 60.4 °F 29.6 in Calm   3.8 mph 91% 0 in 97 W/m2
07:21 63.9 °F 60.6 °F 29.7 in North 3.1 mph 6 mph 89% 0 in 128 W/m2
07:26 64.8 °F 60.4 °F 29.6 in Calm   6 mph 86% 0 in 153 W/m2
07:31 65.8 °F 61.2 °F 29.6 in Calm   6 mph 85% 0 in 48 W/m2
07:36 65.5 °F 60.3 °F 29.6 in Calm     83% 0 in 46 W/m2
07:41 65.1 °F 59.7 °F 29.7 in Calm     83% 0 in 51 W/m2
07:46 64.8 °F 59.5 °F 29.7 in Calm     83% 0 in 64 W/m2
07:51 64.8 °F 58.5 °F 29.7 in Calm   3.1 mph 80% 0 in 141 W/m2
07:56 65.8 °F 58.8 °F 29.7 in Calm   3.1 mph 78% 0 in 69 W/m2
08:01 66 °F 58.6 °F 29.7 in Calm     77% 0 in 185 W/m2
08:06 66.9 °F 57.9 °F 29.7 in Calm   4.5 mph 73% 0 in 67 W/m2
08:11 67.8 °F 57.4 °F 29.7 in North 3.8 mph 6.9 mph 69% 0 in 91 W/m2
08:16 68 °F 56.1 °F 29.7 in NNW 5.4 mph 7.6 mph 66% 0 in 84 W/m2
08:21 67.8 °F 56.5 °F 29.7 in NNW 3.8 mph 10.7 mph 67% 0 in 78 W/m2
08:26 67.8 °F 56.5 °F 29.7 in North 0.7 mph 10.7 mph 67% 0 in 73 W/m2
08:31 68.5 °F 56.8 °F 29.7 in North 3.1 mph 7.6 mph 66% 0 in 101 W/m2
08:36 68.4 °F 56.1 °F 29.7 in North 6 mph 9.8 mph 65% 0 in 90 W/m2
08:41 68 °F 55.8 °F 29.7 in NNE 6.9 mph 9.8 mph 65% 0 in 65 W/m2
08:43 68 °F 55.8 °F 29.7 in NNE 3.8 mph 9.8 mph 65% 0 in 173 W/m2
08:48 68 °F 55.8 °F 29.7 in NNE 4.5 mph 9.2 mph 65% 0 in 351 W/m2
08:53 68.5 °F 55.6 °F 29.7 in NNE 3.1 mph 13.6 mph 63% 0 in 302 W/m2
08:58 69.4 °F 56.8 °F 29.7 in NNE 3.8 mph 13.6 mph 64% 0 in 385 W/m2
09:03 71.1 °F 57.9 °F 29.7 in North 0.7 mph 6 mph 63% 0 in 406 W/m2
09:08 72.5 °F 57.9 °F 29.7 in North 3.8 mph 8.3 mph 60% 0 in 413 W/m2
09:13 72.1 °F 55 °F 29.7 in NNW 3.1 mph 9.2 mph 55% 0 in 409 W/m2
09:18 72.5 °F 55.9 °F 29.7 in North 4.5 mph 12.1 mph 56% 0 in 412 W/m2
09:23 71.8 °F 55.2 °F 29.7 in North 8.3 mph 12.1 mph 56% 0 in 408 W/m2
09:28 72.1 °F 55.6 °F 29.7 in NNW 3.1 mph 9.8 mph 56% 0 in 393 W/m2
09:33 72.3 °F 55.2 °F 29.7 in North 8.3 mph 13.6 mph 55% 0 in 202 W/m2
09:38 72.3 °F 54.9 °F 29.7 in NNE 3.1 mph 13.6 mph 54% 0 in 89 W/m2
09:43 72.9 °F 55.2 °F 29.7 in NNE 3.8 mph 12.1 mph 54% 0 in 77 W/m2
09:48 73.4 °F 55.8 °F 29.7 in NNE 7.6 mph 9.8 mph 54% 0 in 69 W/m2
09:53 72.5 °F 54.9 °F 29.7 in North 5.4 mph 9.8 mph 54% 0 in 65 W/m2
09:59 72.5 °F 55.9 °F 29.7 in North 6.9 mph 9.8 mph 56% 0 in 65 W/m2
10:04 73.4 °F 56.3 °F 29.7 in North 5.4 mph 12.1 mph 55% 0 in 65 W/m2
10:09 73 °F 55.4 °F 29.7 in North 9.2 mph 13 mph 54% 0 in 65 W/m2
10:14 73.2 °F 56.1 °F 29.7 in North 6.9 mph 13 mph 55% 0 in 69 W/m2
10:19 73 °F 56.5 °F 29.7 in North 6.9 mph 12.1 mph 56% 0 in 78 W/m2
10:25 73.9 °F 57.4 °F 29.7 in North 2.2 mph 12.1 mph 56% 0 in 80 W/m2
10:30 75 °F 57.7 °F 29.7 in North 4.5 mph 13 mph 55% 0 in 152 W/m2
10:35 75.6 °F 56.1 °F 29.7 in NNE 4.5 mph 13.6 mph 51% 0 in 111 W/m2
10:53 73.9 °F 56.3 °F 29.7 in North 3.8 mph 12.1 mph 54% 0 in 484 W/m2
10:58 74.7 °F 56.5 °F 29.7 in North 4.5 mph 12.1 mph 53% 0 in 512 W/m2
11:03 75 °F 56.1 °F 29.7 in NNE 4.5 mph 11.4 mph 52% 0 in 528 W/m2
11:08 75.2 °F 55.2 °F 29.7 in NNE 6.9 mph 11.4 mph 50% 0 in 526 W/m2
11:13 74.8 °F 56.7 °F 29.7 in North 5.4 mph 9.2 mph 53% 0 in 521 W/m2
11:18 74.3 °F 54 °F 29.7 in North 6 mph 13 mph 49% 0 in 548 W/m2
11:23 74.8 °F 56.1 °F 29.7 in North 8.3 mph 13 mph 52% 0 in 561 W/m2
11:28 75.2 °F 54.1 °F 29.7 in North 6.9 mph 13.6 mph 48% 0 in 553 W/m2
11:33 75.6 °F 55 °F 29.7 in NNE 3.8 mph 13.6 mph 49% 0 in 625 W/m2
11:38 75.2 °F 53.6 °F 29.7 in North 6 mph 12.1 mph 47% 0 in 585 W/m2
11:43 75.2 °F 54.1 °F 29.7 in NNE 2.2 mph 12.1 mph 48% 0 in 567 W/m2
11:48 75 °F 55.2 °F 29.7 in North 3.8 mph 13 mph 50% 0 in 620 W/m2
11:53 76.3 °F 55.2 °F 29.7 in NNW 5.4 mph 13 mph 48% 0 in 562 W/m2
11:58 76.6 °F 54.9 °F 29.7 in North 8.3 mph 10.7 mph 47% 0 in 555 W/m2
12:03 75.9 °F 54.9 °F 29.7 in NNW 3.8 mph 13.6 mph 48% 0 in 545 W/m2
12:08 76.1 °F 54.3 °F 29.7 in NNW 5.4 mph 13.6 mph 47% 0 in 569 W/m2
12:13 76.1 °F 54.3 °F 29.7 in NNW 4.5 mph 12.1 mph 47% 0 in 565 W/m2
12:18 76.3 °F 54.7 °F 29.7 in NW 6.9 mph 11.4 mph 47% 0 in 572 W/m2
12:23 75.6 °F 53.4 °F 29.7 in NW 7.6 mph 13 mph 46% 0 in 546 W/m2
12:28 76.3 °F 54 °F 29.7 in NNW 3.8 mph 13 mph 46% 0 in 184 W/m2
12:33 74.8 °F 54 °F 29.7 in NNW 3.8 mph 9.8 mph 48% 0 in 238 W/m2
12:38 75.7 °F 54.7 °F 29.7 in NNW 3.8 mph 9.8 mph 48% 0 in 321 W/m2
12:43 74.8 °F 54.3 °F 29.7 in NW 5.4 mph 9.8 mph 49% 0 in 169 W/m2
12:48 74.1 °F 54.9 °F 29.7 in NW 3.8 mph 9.8 mph 51% 0 in 604 W/m2
12:53 75.4 °F 54.3 °F 29.7 in NNW 5.4 mph 9.2 mph 48% 0 in 664 W/m2
12:58 76.6 °F 55.6 °F 29.7 in NNW 9.2 mph 13.6 mph 48% 0 in 210 W/m2
13:03 75.9 °F 54.9 °F 29.7 in NW 6 mph 13.6 mph 48% 0 in 558 W/m2
13:08 76.3 °F 55.8 °F 29.7 in NNW 8.3 mph 13.6 mph 49% 0 in 209 W/m2
13:13 75.6 °F 55 °F 29.7 in NW 6 mph 13.6 mph 49% 0 in 401 W/m2
13:18 75.4 °F 54.3 °F 29.7 in NW 7.6 mph 15.9 mph 48% 0 in 140 W/m2
13:23 73.9 °F 54.1 °F 29.7 in NNW 8.3 mph 15.9 mph 50% 0 in 344 W/m2
13:28 74.1 °F 54.9 °F 29.7 in NNW 9.8 mph 15.9 mph 51% 0 in 421 W/m2
13:33 74.7 °F 54.3 °F 29.7 in NW 11.4 mph 16.8 mph 49% 0 in 142 W/m2
13:38 74.5 °F 54.7 °F 29.7 in NNW 4.5 mph 16.8 mph 50% 0 in 359 W/m2
13:43 76.3 °F 55.8 °F 29.7 in NNW 9.8 mph 16.8 mph 49% 0 in 365 W/m2
13:48 75.6 °F 54 °F 29.7 in NW 9.2 mph 15.2 mph 47% 0 in 131 W/m2
13:53 74.5 °F 54.1 °F 29.7 in NW 6.9 mph 15.2 mph 49% 0 in 150 W/m2
13:58 74.1 °F 53.8 °F 29.7 in NW 8.3 mph 15.9 mph 49% 0 in 431 W/m2
14:03 75.4 °F 53.8 °F 29.7 in NW 7.6 mph 16.8 mph 47% 0 in 396 W/m2
14:08 76.1 °F 54.3 °F 29.7 in NW 9.2 mph 16.8 mph 47% 0 in 376 W/m2
14:13 76.1 °F 54.3 °F 29.7 in NW 6 mph 14.5 mph 47% 0 in 141 W/m2
14:18 74.5 °F 54.1 °F 29.7 in NW 3.1 mph 14.5 mph 49% 0 in 295 W/m2
14:23 76.3 °F 54.7 °F 29.7 in NW 5.4 mph 11.4 mph 47% 0 in 170 W/m2
14:39 77.2 °F 54.9 °F 29.7 in NW 6 mph 14.5 mph 46% 0 in 191 W/m2
14:45 78.1 °F 55 °F 29.7 in NNW 6 mph 13 mph 45% 0 in 169 W/m2
14:50 77.7 °F 54.7 °F 29.7 in NNW 4.5 mph 13.6 mph 45% 0 in 157 W/m2
14:55 77.5 °F 54.7 °F 29.7 in NNW 5.4 mph 13.6 mph 45% 0 in 188 W/m2
15:00 77.5 °F 54.7 °F 29.7 in NNW 6 mph 13 mph 45% 0 in 255 W/m2
15:05 77.7 °F 54.7 °F 29.7 in NNW 4.5 mph 13 mph 45% 0 in 280 W/m2
15:10 77.7 °F 55.2 °F 29.7 in NW 6.9 mph 10.7 mph 46% 0 in 293 W/m2
15:15 77.5 °F 55.2 °F 29.7 in NNW 6 mph 9.8 mph 46% 0 in 283 W/m2
15:20 77.2 °F 54.9 °F 29.7 in NNW 3.8 mph 9.8 mph 46% 0 in 271 W/m2
15:25 77.4 °F 55 °F 29.7 in NNW 6.9 mph 9.8 mph 46% 0 in 273 W/m2
15:30 77.4 °F 55.6 °F 29.7 in North 6 mph 9.8 mph 47% 0 in 245 W/m2
15:35 77.7 °F 55.9 °F 29.7 in NNE 5.4 mph 9.8 mph 47% 0 in 231 W/m2
15:40 77.2 °F 55.4 °F 29.7 in NNE 7.6 mph 11.4 mph 47% 0 in 219 W/m2
15:45 76.8 °F 56.1 °F 29.7 in NNE 2.2 mph 11.4 mph 49% 0 in 201 W/m2
15:50 77 °F 54.7 °F 29.7 in NNE 3.8 mph 13 mph 46% 0 in 187 W/m2
15:55 76.3 °F 55.2 °F 29.7 in NNE 4.5 mph 14.5 mph 48% 0 in 174 W/m2
16:00 75.7 °F 55.2 °F 29.7 in NNE 5.4 mph 14.5 mph 49% 0 in 158 W/m2
16:05 75.7 °F 55.2 °F 29.7 in NNE 6.9 mph 13.6 mph 49% 0 in 145 W/m2
16:10 75.7 °F 55.8 °F 29.7 in NNE 4.5 mph 13 mph 50% 0 in 134 W/m2
16:15 75.9 °F 55.4 °F 29.7 in NE 6.9 mph 9.8 mph 49% 0 in 124 W/m2
16:20 75.2 °F 55.9 °F 29.7 in NE 4.5 mph 11.4 mph 51% 0 in 111 W/m2
16:25 75.4 °F 55.9 °F 29.7 in NNE 4.5 mph 11.4 mph 51% 0 in 102 W/m2
16:30 75 °F 55.8 °F 29.7 in North 7.6 mph 13.6 mph 51% 0 in 95 W/m2
16:35 74.3 °F 55 °F 29.7 in North 6 mph 14.5 mph 51% 0 in 88 W/m2
16:40 74.1 °F 55.4 °F 29.7 in North 3.8 mph 14.5 mph 52% 0 in 80 W/m2
16:45 73.8 °F 55 °F 29.7 in North 9.8 mph 13.6 mph 52% 0 in 64 W/m2
16:50 73.4 °F 55.2 °F 29.7 in North 6.9 mph 13.6 mph 53% 0 in 58 W/m2
16:55 73 °F 54.9 °F 29.7 in North 4.5 mph 12.1 mph 53% 0 in 49 W/m2
17:00 72 °F 54 °F 29.7 in NNW 3.8 mph 14.5 mph 53% 0 in 38 W/m2
17:05 72.1 °F 54.7 °F 29.7 in North 2.2 mph 14.5 mph 54% 0 in 39 W/m2
17:10 72.3 °F 54.3 °F 29.7 in NNE 5.4 mph 10.7 mph 53% 0 in 28 W/m2
17:15 70.7 °F 54.3 °F 29.7 in North 3.1 mph 9.2 mph 56% 0 in 20 W/m2
17:20 69.8 °F 54.3 °F 29.7 in NNE 5.4 mph 12.1 mph 58% 0 in 16 W/m2
17:25 69.3 °F 55.2 °F 29.7 in North 4.5 mph 12.1 mph 61% 0 in 13 W/m2
17:30 69.1 °F 54.7 °F 29.7 in North 5.4 mph 9.2 mph 60% 0 in 11 W/m2
17:35 68.7 °F 55.6 °F 29.7 in North 4.5 mph 9.2 mph 63% 0 in 7 W/m2
17:40 68.2 °F 55.6 °F 29.7 in NNE 5.4 mph 8.3 mph 64% 0 in 4 W/m2
17:46 67.8 °F 56.1 °F 29.7 in NNE 4.5 mph 8.3 mph 66% 0 in 1 W/m2
17:51 67.6 °F 55.9 °F 29.7 in North 3.1 mph 9.8 mph 66% 0 in 0 W/m2
17:56 67.5 °F 55.8 °F 29.7 in North 4.5 mph 9.8 mph 66% 0 in 0 W/m2
18:01 67.1 °F 55.4 °F 29.7 in North 4.5 mph 8.3 mph 66% 0 in 0 W/m2
18:06 67.1 °F 55.4 °F 29.7 in North 3.8 mph 9.8 mph 66% 0 in 0 W/m2
18:11 66.6 °F 55.2 °F 29.7 in NNE 5.4 mph 9.8 mph 67% 0 in 0 W/m2
18:16 66.4 °F 55 °F 29.7 in North 3.1 mph 9.2 mph 67% 0 in 0 W/m2
18:21 66.4 °F 55 °F 29.7 in NNE 0.7 mph 9.2 mph 67% 0 in 0 W/m2
18:26 66.2 °F 54.9 °F 29.7 in North 6.9 mph 10.7 mph 67% 0 in 0 W/m2
18:31 66.4 °F 54.7 °F 29.7 in NNE 2.2 mph 10.7 mph 66% 0 in 0 W/m2
18:36 66.4 °F 54.7 °F 29.7 in NNE 5.4 mph 10.7 mph 66% 0 in 0 W/m2
18:41 66.4 °F 54.7 °F 29.7 in North 7.6 mph 12.1 mph 66% 0 in 0 W/m2
18:46 66.4 °F 54.7 °F 29.7 in North 7.6 mph 13 mph 66% 0 in 0 W/m2
18:51 66.4 °F 54.7 °F 29.7 in North 6 mph 13 mph 66% 0 in 0 W/m2
18:56 66.2 °F 54.5 °F 29.7 in North 6.9 mph 12.1 mph 66% 0 in 0 W/m2
19:01 65.8 °F 54.7 °F 29.7 in NNE 6.9 mph 12.1 mph 67% 0 in 0 W/m2
19:06 65.8 °F 55 °F 29.7 in NNE 7.6 mph 12.1 mph 68% 0 in 0 W/m2
19:11 65.7 °F 54.9 °F 29.7 in North 6 mph 10.7 mph 68% 0 in 0 W/m2
19:16 65.3 °F 54.5 °F 29.7 in North 3.1 mph 10.7 mph 68% 0 in 0 W/m2
19:21 65.1 °F 54.3 °F 29.7 in North 5.4 mph 9.2 mph 68% 0 in 0 W/m2
19:26 64.9 °F 54.1 °F 29.7 in NNE 5.4 mph 9.2 mph 68% 0 in 0 W/m2
19:31 64.8 °F 54 °F 29.7 in NNE 6 mph 10.7 mph 68% 0 in 0 W/m2
19:36 64.8 °F 54 °F 29.7 in NE 6.9 mph 10.7 mph 68% 0 in 0 W/m2
19:41 64.8 °F 54 °F 29.7 in NNE 7.6 mph 10.7 mph 68% 0 in 0 W/m2
19:46 65.1 °F 54.3 °F 29.7 in North 4.5 mph 10.7 mph 68% 0 in 0 W/m2
19:51 65.1 °F 54.3 °F 29.7 in North 6.9 mph 11.4 mph 68% 0 in 0 W/m2
19:56 64.8 °F 54 °F 29.7 in North 6.9 mph 11.4 mph 68% 0 in 0 W/m2
20:01 64.4 °F 54 °F 29.7 in NNE 5.4 mph 9.8 mph 69% 0 in 0 W/m2
20:06 64.4 °F 54 °F 29.7 in NNE 6 mph 9.8 mph 69% 0 in 0 W/m2
20:11 64.4 °F 54 °F 29.7 in NNE 6.9 mph 9.8 mph 69% 0 in 0 W/m2
20:16 64.4 °F 54 °F 29.7 in North 6.9 mph 11.4 mph 69% 0 in 0 W/m2
20:21 64.2 °F 54.7 °F 29.7 in North 6.9 mph 11.4 mph 71% 0 in 0 W/m2
20:26 64.2 °F 54.7 °F 29.7 in NNE 6 mph 11.4 mph 71% 0 in 0 W/m2
20:31 63.9 °F 54.3 °F 29.7 in NNE 4.5 mph 9.2 mph 71% 0 in 0 W/m2
20:36 63.7 °F 54.5 °F 29.7 in North 4.5 mph 9.2 mph 72% 0 in 0 W/m2
20:41 63.5 °F 54.3 °F 29.7 in Calm   6.9 mph 72% 0 in 0 W/m2
20:46 63.1 °F 54 °F 29.7 in Calm   6.9 mph 72% 0 in 0 W/m2
20:51 62.8 °F 54 °F 29.7 in Calm   3.8 mph 73% 0 in 0 W/m2
20:56 62.6 °F 53.8 °F 29.7 in Calm   2.2 mph 73% 0 in 0 W/m2
21:01 62.4 °F 54 °F 29.7 in Calm     74% 0 in 0 W/m2
21:06 62.2 °F 54 °F 29.7 in Calm     74% 0 in 0 W/m2
21:11 61.7 °F 53.8 °F 29.7 in Calm     75% 0 in 0 W/m2
21:16 61.2 °F 53.6 °F 29.7 in Calm     76% 0 in 0 W/m2
21:21 60.6 °F 53.8 °F 29.7 in Calm     78% 0 in 0 W/m2
21:26 60.3 °F 53.8 °F 29.7 in Calm     79% 0 in 0 W/m2
21:31 60.1 °F 54 °F 29.7 in Calm     80% 0 in 0 W/m2
21:36 59.9 °F 54.1 °F 29.7 in Calm     81% 0 in 0 W/m2
21:41 59.5 °F 54.1 °F 29.7 in Calm     82% 0 in 0 W/m2
21:46 59.4 °F 54 °F 29.7 in Calm     82% 0 in 0 W/m2
21:51 59 °F 53.4 °F 29.7 in Calm     82% 0 in 0 W/m2
21:56 58.6 °F 53.8 °F 29.7 in Calm     84% 0 in 0 W/m2
22:01 58.1 °F 53.2 °F 29.7 in Calm     84% 0 in 0 W/m2
22:06 57.7 °F 53.2 °F 29.7 in Calm     85% 0 in 0 W/m2
22:11 57.6 °F 53.4 °F 29.7 in Calm     86% 0 in 0 W/m2
22:16 57.4 °F 53.2 °F 29.7 in Calm     86% 0 in 0 W/m2
22:21 57.4 °F 54 °F 29.7 in Calm     88% 0 in 0 W/m2
22:26 57.2 °F 53.4 °F 29.7 in Calm   2.2 mph 87% 0 in 0 W/m2
22:31 57 °F 53.8 °F 29.7 in Calm   2.2 mph 89% 0 in 0 W/m2
22:36 57 °F 53.8 °F 29.7 in Calm   1.6 mph 89% 0 in 0 W/m2
22:41 56.8 °F 53.6 °F 29.7 in Calm     89% 0 in 0 W/m2
22:46 56.5 °F 53.2 °F 29.7 in Calm     89% 0 in 0 W/m2
22:51 56.8 °F 54 °F 29.7 in Calm     90% 0 in 0 W/m2
22:56 56.8 °F 54 °F 29.7 in Calm     90% 0 in 0 W/m2
23:01 56.7 °F 53.8 °F 29.7 in Calm     90% 0 in 0 W/m2
23:06 56.3 °F 53.4 °F 29.7 in Calm     90% 0 in 0 W/m2
23:11 56.5 °F 54 °F 29.7 in Calm     91% 0 in 0 W/m2
23:16 56.5 °F 54 °F 29.7 in Calm     91% 0 in 0 W/m2
23:21 56.7 °F 54.3 °F 29.7 in Calm     92% 0 in 0 W/m2
23:26 56.7 °F 54.3 °F 29.7 in Calm     92% 0 in 0 W/m2
23:31 56.5 °F 54 °F 29.7 in Calm     91% 0 in 0 W/m2
23:36 56.7 °F 54.1 °F 29.7 in Calm     91% 0 in 0 W/m2
23:42 56.7 °F 54.1 °F 29.7 in Calm     91% 0 in 0 W/m2
23:47 56.5 °F 54 °F 29.7 in Calm     91% 0 in 0 W/m2
23:52 56.5 °F 54.1 °F 29.7 in Calm   1.6 mph 92% 0 in 0 W/m2
23:57 56.3 °F 54 °F 29.7 in Calm   1.6 mph 92% 0 in 0 W/m2
Northern Hawkes Bay. New Zealand Historic Data
Compliments of Weather Underground - 2.25 mb